createdAt,value
2022-12-03T00:00:24.911Z,11.70
2022-12-03T00:02:51.412Z,11.70
2022-12-03T00:05:18.074Z,12.45
2022-12-03T00:07:44.667Z,10.93
2022-12-03T00:10:11.979Z,11.70
2022-12-03T00:12:38.477Z,11.98
2022-12-03T00:15:06.389Z,12.35
2022-12-03T00:17:32.963Z,11.48
2022-12-03T00:19:59.363Z,11.07
2022-12-03T00:22:26.018Z,11.55
2022-12-03T00:24:52.697Z,12.23
2022-12-03T00:27:19.307Z,11.45
2022-12-03T00:29:45.735Z,10.88
2022-12-03T00:32:12.220Z,11.82
2022-12-03T00:34:38.619Z,11.70
2022-12-03T00:37:05.043Z,10.38
2022-12-03T00:39:31.479Z,11.52
2022-12-03T00:41:57.899Z,10.88
2022-12-03T00:44:24.297Z,10.73
2022-12-03T00:46:50.853Z,10.65
2022-12-03T00:49:17.322Z,11.70
2022-12-03T00:51:43.759Z,13.18
2022-12-03T00:54:10.179Z,11.90
2022-12-03T00:56:36.621Z,12.90
2022-12-03T00:59:03.019Z,11.68
2022-12-03T01:01:29.642Z,11.60
2022-12-03T01:03:56.144Z,10.52
2022-12-03T01:06:22.580Z,11.93
2022-12-03T01:08:48.982Z,11.48
2022-12-03T01:11:34.120Z,10.70
2022-12-03T01:14:00.511Z,11.20
2022-12-03T01:16:26.951Z,11.15
2022-12-03T01:18:53.459Z,10.50
2022-12-03T01:21:19.926Z,10.95
2022-12-03T01:23:46.417Z,11.68
2022-12-03T01:26:12.894Z,10.80
2022-12-03T01:28:39.351Z,10.48
2022-12-03T01:31:24.532Z,11.00
2022-12-03T01:33:50.925Z,11.95
2022-12-03T01:36:17.330Z,11.30
2022-12-03T01:38:43.767Z,12.40
2022-12-03T01:41:12.045Z,11.93
2022-12-03T01:43:38.793Z,12.38
2022-12-03T01:46:05.440Z,11.45
2022-12-03T01:48:36.884Z,12.85
2022-12-03T01:51:03.545Z,12.10
2022-12-03T01:53:30.087Z,11.18
2022-12-03T01:55:56.586Z,11.73
2022-12-03T01:58:28.166Z,12.02
2022-12-03T02:00:54.722Z,11.35
2022-12-03T02:03:26.114Z,11.75
2022-12-03T02:05:53.384Z,12.48
2022-12-03T02:08:39.128Z,11.45
2022-12-03T02:11:09.874Z,11.55
2022-12-03T02:13:36.699Z,12.75
2022-12-03T02:16:04.386Z,11.10
2022-12-03T02:18:30.960Z,11.43
2022-12-03T02:21:13.041Z,11.88
2022-12-03T02:23:57.302Z,11.80
2022-12-03T02:26:23.886Z,10.95
2022-12-03T02:28:50.543Z,11.57
2022-12-03T02:31:17.074Z,11.80
2022-12-03T02:33:43.564Z,11.63
2022-12-03T02:36:11.057Z,11.98
2022-12-03T02:38:37.565Z,10.82
2022-12-03T02:41:08.452Z,11.45
2022-12-03T02:43:35.330Z,13.15
2022-12-03T02:46:03.735Z,11.93
2022-12-03T02:48:35.709Z,11.77
2022-12-03T02:51:08.240Z,11.15
2022-12-03T02:53:45.044Z,11.27
2022-12-03T02:56:15.999Z,11.98
2022-12-03T02:58:44.741Z,11.52
2022-12-03T03:01:11.484Z,10.75
2022-12-03T03:03:38.803Z,11.85
2022-12-03T03:06:06.952Z,13.10
2022-12-03T03:08:35.047Z,12.00
2022-12-03T03:11:02.464Z,12.80
2022-12-03T03:13:31.023Z,12.52
2022-12-03T03:15:57.897Z,11.95
2022-12-03T03:18:24.445Z,11.38
2022-12-03T03:20:51.026Z,11.52
2022-12-03T03:23:21.364Z,12.70
2022-12-03T03:25:53.868Z,11.57
2022-12-03T03:28:20.460Z,11.80
2022-12-03T03:30:47.187Z,12.07
2022-12-03T03:33:15.129Z,10.27
2022-12-03T03:35:43.080Z,11.50
2022-12-03T03:38:10.042Z,11.38
2022-12-03T03:40:38.124Z,11.38
2022-12-03T03:43:06.605Z,10.80
2022-12-03T03:45:37.979Z,10.95
2022-12-03T03:48:05.019Z,10.25
2022-12-03T03:50:37.237Z,11.55
2022-12-03T03:53:10.616Z,11.70
2022-12-03T03:55:38.350Z,11.77
2022-12-03T03:58:04.952Z,11.10
2022-12-03T04:00:32.089Z,10.77
2022-12-03T04:02:58.657Z,11.43
2022-12-03T04:05:25.519Z,12.88
2022-12-03T04:07:52.433Z,11.57
2022-12-03T04:10:37.787Z,12.15
2022-12-03T04:13:05.083Z,11.70
2022-12-03T04:15:32.099Z,12.60
2022-12-03T04:18:17.178Z,11.73
2022-12-03T04:20:43.629Z,11.20
2022-12-03T04:23:10.414Z,12.05
2022-12-03T04:25:55.564Z,11.88
2022-12-03T04:28:40.302Z,11.15
2022-12-03T04:31:25.260Z,12.23
2022-12-03T04:34:10.812Z,11.68
2022-12-03T04:36:37.563Z,10.68
2022-12-03T04:39:04.438Z,10.85
2022-12-03T04:41:30.930Z,11.27
2022-12-03T04:44:15.969Z,11.27
2022-12-03T04:46:42.452Z,10.43
2022-12-03T04:49:08.880Z,10.60
2022-12-03T04:51:35.315Z,11.43
2022-12-03T04:54:02.040Z,11.43
2022-12-03T04:56:28.544Z,11.48
2022-12-03T04:58:54.954Z,10.75
2022-12-03T05:01:21.454Z,11.20
2022-12-03T05:03:47.976Z,11.30
2022-12-03T05:06:14.433Z,10.85
2022-12-03T05:08:40.858Z,10.75
2022-12-03T05:11:07.329Z,11.00
2022-12-03T05:13:33.796Z,10.50
2022-12-03T05:16:00.257Z,10.50
2022-12-03T05:18:26.697Z,10.55
2022-12-03T05:20:53.782Z,11.57
2022-12-03T05:23:21.364Z,11.90
2022-12-03T05:25:47.815Z,11.25
2022-12-03T05:28:14.277Z,10.68
2022-12-03T05:30:40.868Z,10.73
2022-12-03T05:33:07.359Z,10.88
2022-12-03T05:35:33.775Z,12.35
2022-12-03T05:38:00.152Z,10.73
2022-12-03T05:40:26.616Z,10.73
2022-12-03T05:42:56.910Z,10.45
2022-12-03T05:45:26.273Z,10.90
2022-12-03T05:47:53.738Z,10.45
2022-12-03T05:50:21.694Z,11.70
2022-12-03T05:52:48.307Z,9.88
2022-12-03T05:55:15.298Z,10.52
2022-12-03T05:57:41.834Z,10.32
2022-12-03T06:00:13.230Z,11.00
2022-12-03T06:02:40.289Z,9.93
2022-12-03T06:05:07.745Z,9.88
2022-12-03T06:07:34.378Z,10.75
2022-12-03T06:10:00.905Z,11.00
2022-12-03T06:12:27.317Z,10.32
2022-12-03T06:14:55.105Z,10.98
2022-12-03T06:17:21.713Z,11.23
2022-12-03T06:19:48.100Z,9.45
2022-12-03T06:22:14.585Z,10.02
2022-12-03T06:24:40.977Z,10.75
2022-12-03T06:27:07.366Z,10.27
2022-12-03T06:29:33.762Z,10.38
2022-12-03T06:32:00.197Z,10.10
2022-12-03T06:34:26.598Z,10.38
2022-12-03T06:36:53.150Z,10.70
2022-12-03T06:39:19.583Z,10.18
2022-12-03T06:41:46.064Z,11.10
2022-12-03T06:44:12.494Z,10.57
2022-12-03T06:46:38.956Z,11.13
2022-12-03T06:49:05.581Z,10.55
2022-12-03T06:51:31.998Z,9.98
2022-12-03T06:53:58.390Z,10.98
2022-12-03T06:56:26.474Z,10.40
2022-12-03T06:58:54.882Z,11.00
2022-12-03T07:01:21.409Z,11.30
2022-12-03T07:03:47.965Z,10.13
2022-12-03T07:06:14.848Z,11.10
2022-12-03T07:08:41.526Z,11.73
2022-12-03T07:11:31.089Z,11.27
2022-12-03T07:14:05.393Z,11.45
2022-12-03T07:16:32.863Z,11.15
2022-12-03T07:18:59.429Z,10.65
2022-12-03T07:21:25.874Z,10.50
2022-12-03T07:23:52.256Z,11.60
2022-12-03T07:26:18.660Z,11.50
2022-12-03T07:28:45.133Z,15.70
2022-12-03T07:31:11.573Z,15.35
2022-12-03T07:33:38.053Z,11.50
2022-12-03T07:36:04.584Z,10.43
2022-12-03T07:38:31.056Z,11.07
2022-12-03T07:40:57.446Z,10.65
2022-12-03T07:43:23.881Z,11.20
2022-12-03T07:45:50.327Z,10.82
2022-12-03T07:48:16.713Z,11.40
2022-12-03T07:50:43.105Z,11.32
2022-12-03T07:53:09.594Z,10.75
2022-12-03T07:55:36.013Z,10.65
2022-12-03T07:58:02.519Z,10.05
2022-12-03T08:00:29.144Z,14.02
2022-12-03T08:02:55.620Z,11.48
2022-12-03T08:05:22.016Z,13.65
2022-12-03T08:07:48.445Z,13.00
2022-12-03T08:10:14.829Z,10.65
2022-12-03T08:12:41.236Z,13.00
2022-12-03T08:15:16.940Z,12.13
2022-12-03T08:17:45.759Z,12.60
2022-12-03T08:20:20.987Z,12.40
2022-12-03T08:22:50.158Z,12.95
2022-12-03T08:25:24.227Z,12.02
2022-12-03T08:27:53.257Z,13.40
2022-12-03T08:30:19.844Z,12.05
2022-12-03T08:32:47.191Z,11.93
2022-12-03T08:35:17.215Z,12.20
2022-12-03T08:37:43.628Z,11.90
2022-12-03T08:40:23.211Z,11.52
2022-12-03T08:42:49.893Z,12.18
2022-12-03T08:45:28.255Z,13.85
2022-12-03T08:48:05.924Z,12.10
2022-12-03T08:50:39.994Z,9.68
2022-12-03T08:53:21.610Z,9.90
2022-12-03T08:55:52.897Z,11.00
2022-12-03T08:58:31.857Z,12.70
2022-12-03T09:01:03.161Z,12.23
2022-12-03T09:03:30.997Z,12.50
2022-12-03T09:05:57.582Z,12.68
2022-12-03T09:08:24.017Z,11.32
2022-12-03T09:10:50.810Z,11.70
2022-12-03T09:13:17.195Z,10.95
2022-12-03T09:15:43.814Z,10.30
2022-12-03T09:18:10.264Z,10.27
2022-12-03T09:20:36.644Z,9.88
2022-12-03T09:23:03.509Z,11.90
2022-12-03T09:25:29.979Z,10.82
2022-12-03T09:27:56.369Z,12.07
2022-12-03T09:30:22.937Z,12.18
2022-12-03T09:32:49.410Z,11.20
2022-12-03T09:35:15.978Z,11.10
2022-12-03T09:37:42.399Z,11.27
2022-12-03T09:40:09.925Z,11.55
2022-12-03T09:42:37.436Z,12.85
2022-12-03T09:45:07.412Z,12.88
2022-12-03T09:47:34.285Z,12.15
2022-12-03T09:50:00.683Z,14.25
2022-12-03T09:52:33.825Z,13.55
2022-12-03T09:55:05.538Z,11.68
2022-12-03T09:57:31.955Z,10.63
2022-12-03T09:59:58.862Z,11.75
2022-12-03T10:02:29.523Z,10.75
2022-12-03T10:04:58.139Z,9.80
2022-12-03T10:07:25.590Z,10.70
2022-12-03T10:09:52.968Z,8.85
2022-12-03T10:12:37.285Z,9.30
2022-12-03T10:15:04.114Z,9.25
2022-12-03T10:17:31.741Z,9.68
2022-12-03T10:19:58.341Z,9.60
2022-12-03T10:22:25.018Z,9.52
2022-12-03T10:25:13.203Z,10.80
2022-12-03T10:30:19.641Z,9.30
2022-12-03T10:32:49.247Z,9.07
2022-12-03T10:35:16.828Z,7.50
2022-12-03T10:37:59.768Z,8.88
2022-12-03T10:40:32.890Z,9.23
2022-12-03T10:43:12.628Z,8.75
2022-12-03T10:45:39.380Z,10.50
2022-12-03T10:48:11.935Z,8.32
2022-12-03T10:50:47.205Z,7.65
2022-12-03T10:53:13.743Z,8.00
2022-12-03T10:55:42.626Z,5.93
2022-12-03T11:00:43.300Z,7.30
2022-12-03T11:03:19.748Z,6.65
2022-12-03T11:05:46.318Z,5.95
2022-12-03T11:08:18.789Z,6.57
2022-12-03T11:10:55.041Z,6.30
2022-12-03T11:13:28.529Z,6.00
2022-12-03T11:15:55.327Z,15.52
2022-12-03T11:18:37.087Z,6.38
2022-12-03T11:21:06.639Z,5.60
2022-12-03T11:23:47.195Z,6.10
2022-12-03T11:26:36.422Z,5.90
2022-12-03T11:29:04.390Z,5.80
2022-12-03T11:31:36.041Z,6.18
2022-12-03T11:34:21.011Z,5.72
2022-12-03T11:37:09.262Z,4.72
2022-12-03T11:42:38.833Z,4.82
2022-12-03T11:45:14.187Z,4.95
2022-12-03T11:50:22.788Z,5.55
2022-12-03T11:52:59.679Z,5.63
2022-12-03T11:55:34.649Z,5.55
2022-12-03T11:58:23.071Z,6.32
2022-12-03T12:00:55.528Z,5.85
2022-12-03T12:03:29.251Z,5.60
2022-12-03T12:06:17.944Z,5.78
2022-12-03T12:08:59.484Z,5.47
2022-12-03T12:11:34.711Z,5.93
2022-12-03T12:14:06.082Z,5.80
2022-12-03T12:16:50.971Z,5.78
2022-12-03T12:19:34.687Z,5.10
2022-12-03T12:22:15.016Z,7.10
2022-12-03T12:24:43.421Z,6.43
2022-12-03T12:27:12.249Z,5.50
2022-12-03T12:29:40.548Z,5.50
2022-12-03T12:32:10.651Z,5.00
2022-12-03T12:34:41.337Z,5.53
2022-12-03T12:37:19.787Z,5.35
2022-12-03T12:39:46.682Z,5.15
2022-12-03T12:42:24.202Z,5.75
2022-12-03T12:44:50.613Z,5.63
2022-12-03T12:47:17.132Z,5.32
2022-12-03T12:49:47.363Z,5.25
2022-12-03T12:52:17.933Z,5.70
2022-12-03T12:54:44.392Z,5.88
2022-12-03T12:57:16.516Z,5.80
2022-12-03T12:59:42.909Z,5.25
2022-12-03T13:02:33.215Z,5.65
2022-12-03T13:05:02.279Z,5.22
2022-12-03T13:07:28.736Z,5.13
2022-12-03T13:09:57.031Z,5.47
2022-12-03T13:12:24.076Z,4.75
2022-12-03T13:14:52.157Z,5.07
2022-12-03T13:17:24.311Z,5.95
2022-12-03T13:20:00.422Z,5.47
2022-12-03T13:22:31.700Z,4.57
2022-12-03T13:25:37.969Z,4.90
2022-12-03T13:30:33.590Z,7.00
2022-12-03T13:33:01.654Z,4.70
2022-12-03T13:35:31.660Z,4.70
2022-12-03T13:37:59.042Z,5.03
2022-12-03T13:40:35.915Z,4.85
2022-12-03T13:43:11.354Z,4.82
2022-12-03T13:45:40.139Z,5.05
2022-12-03T13:48:21.189Z,5.57
2022-12-03T13:50:47.686Z,5.22
2022-12-03T13:53:33.367Z,5.60
2022-12-03T13:56:20.856Z,4.78
2022-12-03T13:58:47.271Z,5.25
2022-12-03T14:01:13.743Z,5.43
2022-12-03T14:03:40.150Z,5.00
2022-12-03T14:06:06.871Z,6.25
2022-12-03T14:08:33.303Z,5.82
2022-12-03T14:11:00.937Z,6.13
2022-12-03T14:13:27.604Z,7.57
2022-12-03T14:15:54.002Z,6.13
2022-12-03T14:18:20.485Z,5.65
2022-12-03T14:20:47.038Z,6.20
2022-12-03T14:23:13.747Z,6.30
2022-12-03T14:25:40.189Z,6.47
2022-12-03T14:28:08.654Z,6.35
2022-12-03T14:30:36.006Z,6.82
2022-12-03T14:33:02.624Z,6.55
2022-12-03T14:35:29.053Z,6.75
2022-12-03T14:37:55.445Z,6.15
2022-12-03T14:40:22.483Z,6.38
2022-12-03T14:42:49.000Z,6.55
2022-12-03T14:45:15.394Z,6.82
2022-12-03T14:47:41.779Z,6.75
2022-12-03T14:50:08.606Z,6.65
2022-12-03T14:52:35.067Z,7.55
2022-12-03T14:55:01.454Z,6.18
2022-12-03T14:57:27.836Z,7.72
2022-12-03T14:59:54.672Z,7.05
2022-12-03T15:02:21.263Z,6.38
2022-12-03T15:04:47.652Z,6.28
2022-12-03T15:07:14.094Z,7.55
2022-12-03T15:09:40.541Z,5.70
2022-12-03T15:12:07.353Z,5.55
2022-12-03T15:14:33.871Z,5.75
2022-12-03T15:17:00.338Z,6.43
2022-12-03T15:19:26.782Z,6.32
2022-12-03T15:21:53.252Z,5.78
2022-12-03T15:24:19.663Z,7.30
2022-12-03T15:26:46.138Z,8.07
2022-12-03T15:29:12.560Z,10.07
2022-12-03T15:31:39.033Z,9.05
2022-12-03T15:34:05.512Z,7.15
2022-12-03T15:36:31.979Z,7.95
2022-12-03T15:38:58.430Z,6.80
2022-12-03T15:41:28.948Z,7.25
2022-12-03T15:44:01.870Z,7.20
2022-12-03T15:46:29.604Z,6.90
2022-12-03T15:48:56.084Z,7.25
2022-12-03T15:51:25.560Z,8.95
2022-12-03T15:53:52.029Z,6.82
2022-12-03T15:56:18.498Z,8.80
2022-12-03T15:58:44.998Z,6.72
2022-12-03T16:01:13.474Z,6.40
2022-12-03T16:03:40.324Z,6.38
2022-12-03T16:06:07.109Z,7.00
2022-12-03T16:08:33.570Z,6.82
2022-12-03T16:10:59.976Z,6.30
2022-12-03T16:13:26.350Z,6.80
2022-12-03T16:15:52.887Z,7.30
2022-12-03T16:18:19.470Z,7.40
2022-12-03T16:20:46.012Z,6.68
2022-12-03T16:23:12.408Z,7.80
2022-12-03T16:25:38.803Z,7.78
2022-12-03T16:28:05.270Z,7.15
2022-12-03T16:30:34.733Z,7.57
2022-12-03T16:33:01.256Z,7.88
2022-12-03T16:35:27.734Z,8.75
2022-12-03T16:37:54.218Z,8.35
2022-12-03T16:40:20.616Z,8.25
2022-12-03T16:42:47.031Z,7.60
2022-12-03T16:45:33.262Z,7.82
2022-12-03T16:48:00.972Z,8.30
2022-12-03T16:50:29.863Z,8.40
2022-12-03T16:52:57.180Z,9.15
2022-12-03T16:55:23.712Z,7.28
2022-12-03T16:57:50.092Z,8.50
2022-12-03T17:00:16.982Z,7.97
2022-12-03T17:02:43.570Z,8.65
2022-12-03T17:05:10.058Z,8.25
2022-12-03T17:07:36.524Z,8.57
2022-12-03T17:10:03.350Z,7.38
2022-12-03T17:12:42.326Z,8.70
2022-12-03T17:15:16.259Z,8.15
2022-12-03T17:17:42.699Z,7.53
2022-12-03T17:20:09.303Z,7.72
2022-12-03T17:22:35.700Z,7.53
2022-12-03T17:25:02.126Z,7.38
2022-12-03T17:27:29.456Z,7.32
2022-12-03T17:29:56.157Z,9.05
2022-12-03T17:32:22.667Z,7.85
2022-12-03T17:34:49.145Z,7.35
2022-12-03T17:37:15.530Z,8.00
2022-12-03T17:39:41.926Z,7.93
2022-12-03T17:42:08.304Z,7.22
2022-12-03T17:44:34.726Z,8.40
2022-12-03T17:47:01.421Z,7.88
2022-12-03T17:49:31.547Z,7.85
2022-12-03T17:51:58.337Z,7.18
2022-12-03T17:54:33.967Z,7.10
2022-12-03T17:57:09.842Z,8.57
2022-12-03T17:59:36.275Z,7.38
2022-12-03T18:02:02.687Z,8.68
2022-12-03T18:04:29.277Z,7.45
2022-12-03T18:07:00.635Z,8.35
2022-12-03T18:09:28.705Z,7.95
2022-12-03T18:11:55.120Z,7.40
2022-12-03T18:14:21.537Z,7.45
2022-12-03T18:16:47.942Z,7.53
2022-12-03T18:19:14.351Z,7.72
2022-12-03T18:21:40.937Z,7.43
2022-12-03T18:24:07.767Z,7.25
2022-12-03T18:26:35.178Z,8.07
2022-12-03T18:29:01.619Z,7.47
2022-12-03T18:31:28.209Z,7.97
2022-12-03T18:33:54.768Z,7.78
2022-12-03T18:36:26.562Z,8.02
2022-12-03T18:38:55.360Z,7.40
2022-12-03T18:41:25.219Z,9.35
2022-12-03T18:43:51.906Z,8.93
2022-12-03T18:46:45.076Z,7.63
2022-12-03T18:49:05.705Z,7.10
2022-12-03T18:51:32.082Z,6.95
2022-12-03T18:53:58.696Z,7.55
2022-12-03T18:56:25.695Z,7.13
2022-12-03T18:58:52.418Z,7.90
2022-12-03T19:01:21.217Z,7.95
2022-12-03T19:03:49.129Z,6.30
2022-12-03T19:06:19.060Z,7.22
2022-12-03T19:08:46.654Z,7.63
2022-12-03T19:11:16.007Z,7.25
2022-12-03T19:13:42.782Z,6.78
2022-12-03T19:16:12.120Z,7.70
2022-12-03T19:18:39.191Z,7.05
2022-12-03T19:21:10.919Z,7.35
2022-12-03T19:23:38.365Z,7.18
2022-12-03T19:26:07.006Z,8.80
2022-12-03T19:28:34.050Z,10.50
2022-12-03T19:31:05.306Z,9.38
2022-12-03T19:33:32.509Z,7.30
2022-12-03T19:36:00.288Z,6.97
2022-12-03T19:38:28.980Z,7.03
2022-12-03T19:41:02.969Z,7.28
2022-12-03T19:43:36.373Z,7.70
2022-12-03T19:46:09.444Z,7.28
2022-12-03T19:48:37.439Z,7.28
2022-12-03T19:51:26.594Z,7.13
2022-12-03T19:53:51.077Z,7.40
2022-12-03T19:56:19.289Z,7.30
2022-12-03T19:58:46.791Z,7.68
2022-12-03T20:01:15.033Z,7.80
2022-12-03T20:03:44.313Z,7.60
2022-12-03T20:06:11.745Z,7.13
2022-12-03T20:08:38.552Z,7.10
2022-12-03T20:11:17.376Z,7.57
2022-12-03T20:13:44.726Z,7.53
2022-12-03T20:16:14.439Z,7.38
2022-12-03T20:18:42.737Z,7.20
2022-12-03T20:21:10.709Z,7.07
2022-12-03T20:23:38.304Z,6.90
2022-12-03T20:26:13.035Z,6.68
2022-12-03T20:28:40.174Z,7.55
2022-12-03T20:31:10.722Z,6.72
2022-12-03T20:33:42.940Z,7.05
2022-12-03T20:36:11.334Z,7.15
2022-12-03T20:38:38.568Z,6.10
2022-12-03T20:41:08.124Z,6.93
2022-12-03T20:43:35.194Z,6.22
2022-12-03T20:48:43.961Z,7.05
2022-12-03T20:51:38.708Z,6.93
2022-12-03T20:56:34.641Z,6.28
2022-12-03T20:59:04.893Z,7.20
2022-12-03T21:01:31.719Z,7.20
2022-12-03T21:03:58.492Z,6.22
2022-12-03T21:06:27.971Z,6.35
2022-12-03T21:08:55.930Z,5.97
2022-12-03T21:11:25.487Z,6.80
2022-12-03T21:13:53.371Z,5.72
2022-12-03T21:16:45.331Z,5.78
2022-12-03T21:19:11.087Z,6.05
2022-12-03T21:21:37.500Z,5.32
2022-12-03T21:24:47.925Z,6.63
2022-12-03T21:27:18.432Z,6.38
2022-12-03T21:29:47.950Z,7.18
2022-12-03T21:32:14.428Z,6.65
2022-12-03T21:34:41.779Z,6.55
2022-12-03T21:37:08.184Z,6.28
2022-12-03T21:39:34.674Z,6.38
2022-12-03T21:42:34.077Z,6.32
2022-12-03T21:44:47.747Z,6.38
2022-12-03T21:47:14.740Z,6.03
2022-12-03T21:49:41.471Z,5.45
2022-12-03T21:52:07.888Z,6.35
2022-12-03T21:54:34.317Z,6.10
2022-12-03T21:57:00.723Z,6.95
2022-12-03T21:59:27.316Z,6.07
2022-12-03T22:01:53.804Z,6.25
2022-12-03T22:04:20.240Z,6.70
2022-12-03T22:06:46.840Z,4.90
2022-12-03T22:09:13.228Z,6.15
2022-12-03T22:11:39.669Z,5.88
2022-12-03T22:14:08.105Z,5.93
2022-12-03T22:16:34.740Z,5.32
2022-12-03T22:19:01.235Z,4.63
2022-12-03T22:21:27.737Z,5.22
2022-12-03T22:23:55.893Z,5.38
2022-12-03T22:26:22.307Z,5.20
2022-12-03T22:28:49.601Z,4.20
2022-12-03T22:31:17.571Z,4.97
2022-12-03T22:33:48.049Z,4.95
2022-12-03T22:36:20.504Z,4.88
2022-12-03T22:38:48.719Z,4.53
2022-12-03T22:41:15.695Z,5.38
2022-12-03T22:43:42.876Z,5.22
2022-12-03T22:46:13.233Z,5.57
2022-12-03T22:48:41.239Z,6.65
2022-12-03T22:51:14.078Z,6.35
2022-12-03T22:53:40.514Z,5.57
2022-12-03T22:56:06.989Z,5.93
2022-12-03T22:58:33.649Z,5.65
2022-12-03T23:01:03.163Z,5.47
2022-12-03T23:03:30.300Z,6.55
2022-12-03T23:05:56.792Z,5.95
2022-12-03T23:08:23.181Z,5.45
2022-12-03T23:10:51.920Z,5.97
2022-12-03T23:13:20.194Z,6.28
2022-12-03T23:15:49.467Z,5.45
2022-12-03T23:18:16.491Z,6.05
2022-12-03T23:20:48.965Z,6.88
2022-12-03T23:23:16.640Z,6.60
2022-12-03T23:25:43.119Z,5.38
2022-12-03T23:28:10.264Z,6.07
2022-12-03T23:30:38.279Z,6.18
2022-12-03T23:33:05.877Z,5.75
2022-12-03T23:35:32.684Z,5.30
2022-12-03T23:37:59.218Z,5.18
2022-12-03T23:40:25.641Z,5.43
2022-12-03T23:42:52.030Z,5.15
2022-12-03T23:45:20.756Z,5.65
2022-12-03T23:47:47.167Z,4.68
2022-12-03T23:50:14.302Z,5.13
2022-12-03T23:52:40.724Z,5.25
2022-12-03T23:55:07.405Z,5.18
2022-12-03T23:57:34.673Z,5.30
